Time;durP1;ratioP1;P1;durP2;ratioP2;P2;SDS_P1;SDS_P2;PMS_P1;PMS_P2;Temp;Humidity;BMP_temperature;BMP_pressure;BME280_temperature;BME280_humidity;BME280_pressure;Samples;Min_cycle;Max_cycle;Signal;HPM_P1;HPM_P2
2022/03/26 00:00:50;;;;;;;47.30;23.63;;;7.70;99.90;;;;;;5093138;28;20189;-38
2022/03/26 00:03:16;;;;;;;40.33;22.37;;;7.70;99.90;;;;;;5094421;28;20182;-38
2022/03/26 00:05:43;;;;;;;46.70;24.23;;;7.70;99.90;;;;;;5094216;28;20194;-42
2022/03/26 00:08:09;;;;;;;42.07;24.47;;;7.70;99.90;;;;;;5093820;28;20190;-41
2022/03/26 00:10:36;;;;;;;46.70;24.57;;;7.60;99.90;;;;;;5094230;28;20178;-38
2022/03/26 00:13:02;;;;;;;41.20;23.90;;;7.60;99.90;;;;;;5093774;28;20190;-39
2022/03/26 00:15:28;;;;;;;39.17;22.23;;;7.60;99.90;;;;;;5093707;28;20198;-40
2022/03/26 00:17:54;;;;;;;43.57;23.13;;;7.50;99.90;;;;;;5093744;28;20669;-41
2022/03/26 00:20:20;;;;;;;41.23;24.77;;;7.50;99.90;;;;;;5093600;28;20181;-41
2022/03/26 00:22:46;;;;;;;39.83;22.67;;;7.40;99.90;;;;;;5093895;28;20171;-42
2022/03/26 00:25:15;;;;;;;47.57;22.27;;;7.30;99.90;;;;;;5093879;28;20634;-41
2022/03/26 00:27:41;;;;;;;39.73;22.97;;;7.30;99.90;;;;;;5093454;28;20620;-39
2022/03/26 00:30:07;;;;;;;44.63;24.40;;;7.20;99.90;;;;;;5093835;28;20185;-39
2022/03/26 00:32:33;;;;;;;40.00;23.23;;;7.10;99.90;;;;;;5093664;28;20182;-39
2022/03/26 00:34:59;;;;;;;44.37;24.20;;;7.10;99.90;;;;;;5093969;28;20529;-41
2022/03/26 00:37:24;;;;;;;39.00;23.33;;;7.00;99.90;;;;;;5094109;28;20195;-39
2022/03/26 00:39:50;;;;;;;44.10;25.83;;;7.00;99.90;;;;;;5092224;28;20251;-40
2022/03/26 00:42:16;;;;;;;45.10;24.60;;;6.90;99.90;;;;;;5093590;28;20300;-41
2022/03/26 00:44:42;;;;;;;43.43;23.93;;;6.90;99.90;;;;;;5093460;28;20226;-40
2022/03/26 00:47:08;;;;;;;40.87;23.10;;;6.90;99.90;;;;;;5091992;28;20211;-41
2022/03/26 00:49:34;;;;;;;36.80;21.53;;;6.90;99.90;;;;;;5093468;28;20174;-41
2022/03/26 00:52:00;;;;;;;39.87;23.17;;;6.90;99.90;;;;;;5093447;28;20654;-41
2022/03/26 00:54:25;;;;;;;47.00;27.60;;;6.80;99.90;;;;;;5093809;28;20172;-41
2022/03/26 00:56:51;;;;;;;42.40;23.73;;;6.70;99.90;;;;;;5093648;28;20611;-39
2022/03/26 00:59:16;;;;;;;39.20;21.73;;;6.70;99.90;;;;;;5093792;28;20209;-40
2022/03/26 01:01:42;;;;;;;30.97;18.83;;;6.70;99.90;;;;;;5093469;28;20201;-40
2022/03/26 01:04:08;;;;;;;38.37;20.97;;;6.50;99.90;;;;;;5093774;28;20193;-41
2022/03/26 01:06:34;;;;;;;39.93;21.27;;;6.30;99.90;;;;;;5093139;28;20202;-41
2022/03/26 01:09:00;;;;;;;38.90;22.73;;;6.20;99.90;;;;;;5093379;28;20199;-41
2022/03/26 01:11:26;;;;;;;43.73;24.13;;;6.10;99.90;;;;;;5093631;28;20179;-40
2022/03/26 01:13:55;;;;;;;45.77;25.50;;;6.10;99.90;;;;;;5098271;28;20165;-43
2022/03/26 01:16:24;;;;;;;39.73;22.67;;;6.10;99.90;;;;;;5098050;28;20223;-42
2022/03/26 01:18:51;;;;;;;36.47;21.80;;;6.00;99.90;;;;;;5097219;28;20185;-40
2022/03/26 01:21:18;;;;;;;36.87;22.57;;;6.00;99.90;;;;;;5096938;28;20168;-41
2022/03/26 01:23:44;;;;;;;39.03;22.83;;;6.00;99.90;;;;;;5097386;28;20233;-40
2022/03/26 01:26:10;;;;;;;43.87;22.50;;;5.90;99.90;;;;;;5096654;28;20211;-39
2022/03/26 01:28:36;;;;;;;36.77;22.40;;;5.80;99.90;;;;;;5097291;28;20210;-42
2022/03/26 01:31:02;;;;;;;39.10;21.23;;;5.80;99.90;;;;;;5095498;28;20225;-40
2022/03/26 01:33:28;;;;;;;45.13;22.57;;;5.70;99.90;;;;;;5096896;28;20186;-40
2022/03/26 01:35:54;;;;;;;43.63;23.73;;;5.60;99.90;;;;;;5096830;28;20201;-39
2022/03/26 01:38:19;;;;;;;44.47;22.23;;;5.60;99.90;;;;;;5096768;28;20262;-41
2022/03/26 01:40:45;;;;;;;44.47;22.03;;;5.50;99.90;;;;;;5096999;28;20185;-41
2022/03/26 01:43:11;;;;;;;40.73;21.40;;;5.50;99.90;;;;;;5097087;28;20176;-40
2022/03/26 01:45:37;;;;;;;44.37;23.43;;;5.40;99.90;;;;;;5096658;28;20666;-41
2022/03/26 01:48:02;;;;;;;38.73;23.40;;;5.40;99.90;;;;;;5096666;28;20659;-39
2022/03/26 01:50:29;;;;;;;35.53;22.30;;;5.40;99.90;;;;;;5096450;28;20184;-40
2022/03/26 01:52:56;;;;;;;36.10;20.60;;;5.30;99.90;;;;;;5096326;28;20172;-39
2022/03/26 01:55:23;;;;;;;44.17;22.30;;;5.30;99.90;;;;;;5096479;28;20274;-39
2022/03/26 01:57:49;;;;;;;44.10;21.57;;;5.20;99.90;;;;;;5096112;28;20179;-43
2022/03/26 02:00:16;;;;;;;39.40;20.97;;;5.20;99.90;;;;;;5096372;28;20213;-40
2022/03/26 02:02:43;;;;;;;35.40;19.60;;;5.10;99.90;;;;;;5096149;28;20234;-40
2022/03/26 02:05:13;;;;;;;37.30;21.37;;;5.10;99.90;;;;;;5096394;28;20224;-40
2022/03/26 02:07:40;;;;;;;36.20;20.70;;;5.00;99.90;;;;;;5096193;28;20196;-38
2022/03/26 02:10:10;;;;;;;42.90;22.73;;;5.00;99.90;;;;;;5096318;28;20261;-41
2022/03/26 02:12:36;;;;;;;37.70;21.87;;;4.90;99.90;;;;;;5095872;28;20195;-40
2022/03/26 02:15:03;;;;;;;39.27;21.77;;;4.90;99.90;;;;;;5095844;28;20171;-40
2022/03/26 02:17:30;;;;;;;40.80;22.03;;;4.80;99.90;;;;;;5096011;28;20206;-39
2022/03/26 02:19:57;;;;;;;44.17;22.47;;;4.80;99.90;;;;;;5096000;28;20185;-40
2022/03/26 02:22:24;;;;;;;37.23;21.17;;;4.80;99.90;;;;;;5096122;28;20179;-40
2022/03/26 02:24:50;;;;;;;42.70;22.73;;;4.80;99.90;;;;;;5094887;28;20275;-40
2022/03/26 02:27:16;;;;;;;42.30;23.93;;;4.70;99.90;;;;;;5095962;28;20175;-39
2022/03/26 02:29:41;;;;;;;41.00;22.60;;;4.70;99.90;;;;;;5095833;28;20181;-42
2022/03/26 02:32:08;;;;;;;40.70;23.53;;;4.70;99.90;;;;;;5096128;28;20629;-40
2022/03/26 02:34:34;;;;;;;55.77;28.80;;;4.70;99.90;;;;;;5096053;28;20177;-41
2022/03/26 02:37:00;;;;;;;50.77;27.43;;;4.70;99.90;;;;;;5095469;28;20653;-41
2022/03/26 02:39:26;;;;;;;55.07;29.43;;;4.80;99.90;;;;;;5095544;28;20187;-41
2022/03/26 02:41:52;;;;;;;47.20;26.70;;;4.80;99.90;;;;;;5095517;28;20223;-41
2022/03/26 02:44:18;;;;;;;48.63;27.43;;;4.90;99.90;;;;;;5095355;28;20244;-40
2022/03/26 02:46:45;;;;;;;49.73;26.33;;;4.90;99.90;;;;;;5094001;28;20196;-39
2022/03/26 02:49:12;;;;;;;49.10;25.83;;;4.90;99.90;;;;;;5095227;28;20244;-40
2022/03/26 02:51:39;;;;;;;46.97;24.40;;;4.90;99.90;;;;;;5095258;28;20223;-40
2022/03/26 02:54:05;;;;;;;50.37;26.67;;;4.90;99.90;;;;;;5095189;28;20214;-40
2022/03/26 02:56:31;;;;;;;47.17;27.63;;;4.90;99.90;;;;;;5095167;28;20194;-40
2022/03/26 02:58:56;;;;;;;52.00;27.57;;;4.80;99.90;;;;;;5095162;28;20180;-39
2022/03/26 03:01:23;;;;;;;50.23;28.10;;;4.80;99.90;;;;;;5095086;28;20672;-42
2022/03/26 03:03:49;;;;;;;47.33;26.40;;;4.80;99.90;;;;;;5095312;28;20206;-40
2022/03/26 03:06:16;;;;;;;51.93;29.43;;;4.80;99.90;;;;;;5095423;28;20665;-41
2022/03/26 03:08:41;;;;;;;52.97;29.07;;;4.80;99.90;;;;;;5094918;28;20593;-41
2022/03/26 03:11:08;;;;;;;58.13;30.33;;;4.80;99.90;;;;;;5094969;28;20178;-38
2022/03/26 03:13:34;;;;;;;56.23;29.90;;;4.90;99.90;;;;;;5095265;28;20184;-41
2022/03/26 03:16:00;;;;;;;59.67;31.57;;;4.90;99.90;;;;;;5094721;28;20667;-40
2022/03/26 03:18:26;;;;;;;52.83;29.97;;;5.00;99.90;;;;;;5094759;28;20187;-38
2022/03/26 03:20:51;;;;;;;59.10;31.00;;;5.00;99.90;;;;;;5095018;28;20663;-41
2022/03/26 03:23:17;;;;;;;66.10;30.83;;;5.10;99.90;;;;;;5094690;28;20508;-39
2022/03/26 03:25:43;;;;;;;63.00;32.50;;;5.10;99.90;;;;;;5094577;28;20218;-41
2022/03/26 03:28:08;;;;;;;56.33;29.50;;;5.20;99.90;;;;;;5094698;28;20675;-41
2022/03/26 03:30:34;;;;;;;57.17;30.83;;;5.20;99.90;;;;;;5094639;28;20163;-42
2022/03/26 03:33:00;;;;;;;52.50;29.37;;;5.20;99.90;;;;;;5094560;28;20189;-41
2022/03/26 03:35:25;;;;;;;52.73;28.53;;;5.20;99.90;;;;;;5094326;28;20195;-42
2022/03/26 03:37:51;;;;;;;50.30;28.23;;;5.10;99.90;;;;;;5094769;28;20205;-40
2022/03/26 03:40:17;;;;;;;54.07;29.20;;;5.10;99.90;;;;;;5094686;28;20176;-40
2022/03/26 03:42:43;;;;;;;62.00;29.30;;;5.00;99.90;;;;;;5094517;28;20185;-41
2022/03/26 03:45:09;;;;;;;54.47;28.80;;;5.00;99.90;;;;;;5093018;28;20200;-39
2022/03/26 03:47:36;;;;;;;55.43;28.60;;;4.90;99.90;;;;;;5094384;28;20198;-43
2022/03/26 03:50:01;;;;;;;49.10;28.37;;;4.90;99.90;;;;;;5092931;28;20640;-40
2022/03/26 03:52:27;;;;;;;58.97;30.40;;;4.80;99.90;;;;;;5094257;28;20175;-39
2022/03/26 03:54:53;;;;;;;55.33;30.03;;;4.70;99.90;;;;;;5094597;28;20171;-40
2022/03/26 03:57:19;;;;;;;60.50;30.40;;;4.70;99.90;;;;;;5094464;28;20183;-40
2022/03/26 03:59:44;;;;;;;65.23;31.50;;;4.70;99.90;;;;;;5094284;28;20630;-40
2022/03/26 04:02:11;;;;;;;56.10;30.33;;;4.70;99.90;;;;;;5094061;28;20175;-40
2022/03/26 04:04:38;;;;;;;60.13;31.97;;;4.70;99.90;;;;;;5094343;28;20225;-41
2022/03/26 04:07:04;;;;;;;56.87;29.87;;;4.70;99.90;;;;;;5094821;28;20223;-40
2022/03/26 04:09:30;;;;;;;64.97;32.13;;;4.70;99.90;;;;;;5094283;28;20260;-41
2022/03/26 04:11:56;;;;;;;54.20;30.87;;;4.70;99.90;;;;;;5095435;28;20191;-40
2022/03/26 04:14:21;;;;;;;58.73;30.37;;;4.70;99.90;;;;;;5094372;28;20175;-39
2022/03/26 04:16:47;;;;;;;54.87;30.13;;;4.70;99.90;;;;;;5093863;28;20195;-41
2022/03/26 04:19:13;;;;;;;53.43;28.77;;;4.70;99.90;;;;;;5094153;28;20277;-40
2022/03/26 04:21:39;;;;;;;50.17;28.13;;;4.70;99.90;;;;;;5093728;28;20186;-39
2022/03/26 04:24:05;;;;;;;50.63;28.60;;;4.60;99.90;;;;;;5093774;28;20177;-39
2022/03/26 04:26:30;;;;;;;61.27;30.10;;;4.60;99.90;;;;;;5093600;28;20739;-39
2022/03/26 04:28:57;;;;;;;57.73;29.73;;;4.50;99.90;;;;;;5092348;28;20198;-41
2022/03/26 04:31:22;;;;;;;62.10;31.27;;;4.50;99.90;;;;;;5093671;28;20173;-39
2022/03/26 04:33:48;;;;;;;57.30;31.13;;;4.50;99.90;;;;;;5092346;28;20644;-40
2022/03/26 04:36:13;;;;;;;59.00;30.53;;;4.50;99.90;;;;;;5093683;28;20558;-38
2022/03/26 04:38:39;;;;;;;57.83;29.70;;;4.60;99.90;;;;;;5093573;28;20179;-41
2022/03/26 04:41:05;;;;;;;58.67;30.80;;;4.60;99.90;;;;;;5093835;28;20175;-40
2022/03/26 04:43:31;;;;;;;62.03;30.63;;;4.60;99.90;;;;;;5093787;28;20592;-39
2022/03/26 04:45:56;;;;;;;55.40;28.93;;;4.60;99.90;;;;;;5093564;28;20199;-40
2022/03/26 04:48:22;;;;;;;63.43;30.93;;;4.60;99.90;;;;;;5096380;28;20217;-39
2022/03/26 04:50:47;;;;;;;54.77;30.00;;;4.60;99.90;;;;;;5101353;28;20209;-42
2022/03/26 04:53:13;;;;;;;56.00;30.37;;;4.60;99.90;;;;;;5098918;28;20262;-39
2022/03/26 04:55:39;;;;;;;54.70;29.23;;;4.50;99.90;;;;;;5097472;28;20195;-42
2022/03/26 04:58:05;;;;;;;54.97;28.00;;;4.50;99.90;;;;;;5097539;28;20640;-40
2022/03/26 05:00:30;;;;;;;51.60;26.93;;;4.50;99.90;;;;;;5097673;28;20193;-40
2022/03/26 05:02:56;;;;;;;47.70;25.83;;;4.40;99.90;;;;;;5097735;28;20175;-39
2022/03/26 05:05:21;;;;;;;50.70;25.97;;;4.40;99.90;;;;;;5097267;28;20676;-38
2022/03/26 05:07:47;;;;;;;52.30;27.57;;;4.20;99.90;;;;;;5097153;28;20285;-38
2022/03/26 05:10:24;;;;;;;56.50;28.43;;;4.10;99.90;;;;;;5097335;28;20244;-40
2022/03/26 05:12:51;;;;;;;51.87;26.30;;;4.10;99.90;;;;;;5095980;28;20194;-39
2022/03/26 05:15:19;;;;;;;44.17;25.77;;;4.10;99.90;;;;;;5097093;28;20190;-39
2022/03/26 05:17:44;;;;;;;51.67;26.70;;;4.00;99.90;;;;;;5097096;28;20640;-40
2022/03/26 05:20:14;;;;;;;49.30;25.40;;;3.90;99.90;;;;;;5097237;28;20187;-41
2022/03/26 05:22:47;;;;;;;43.53;22.53;;;3.90;99.90;;;;;;5097088;28;20186;-41
2022/03/26 05:25:14;;;;;;;47.47;24.80;;;3.80;99.90;;;;;;5097223;28;20542;-40
2022/03/26 05:27:47;;;;;;;49.83;24.87;;;3.70;99.90;;;;;;5096806;28;20664;-41
2022/03/26 05:30:14;;;;;;;50.90;25.43;;;3.60;99.90;;;;;;5097188;28;20163;-42
2022/03/26 05:32:40;;;;;;;48.27;23.27;;;3.50;99.90;;;;;;5097074;28;20258;-39
2022/03/26 05:35:11;;;;;;;43.20;23.63;;;3.50;99.90;;;;;;5096979;28;20628;-42
2022/03/26 05:37:38;;;;;;;47.30;25.70;;;3.40;99.90;;;;;;5097066;28;20174;-42
2022/03/26 05:40:05;;;;;;;44.50;23.20;;;3.30;99.90;;;;;;5096983;28;20178;-41
2022/03/26 05:42:31;;;;;;;47.20;25.37;;;3.30;99.90;;;;;;5096585;28;20640;-42
2022/03/26 05:44:56;;;;;;;49.07;24.30;;;3.20;99.90;;;;;;5096615;28;20182;-40
2022/03/26 05:47:23;;;;;;;44.93;24.30;;;3.10;99.90;;;;;;5096466;28;20179;-40
2022/03/26 05:49:50;;;;;;;50.90;26.73;;;3.10;99.90;;;;;;5096490;28;20175;-41
2022/03/26 05:52:16;;;;;;;52.03;26.10;;;3.10;99.90;;;;;;5096532;28;20564;-40
2022/03/26 05:54:42;;;;;;;45.53;24.07;;;3.10;99.90;;;;;;5096457;28;20187;-42
2022/03/26 05:57:08;;;;;;;57.70;26.20;;;3.10;99.90;;;;;;5096383;28;20590;-40
2022/03/26 05:59:33;;;;;;;57.83;28.60;;;3.10;99.90;;;;;;5096502;28;20548;-40
2022/03/26 06:01:59;;;;;;;45.57;27.17;;;3.10;99.90;;;;;;5096836;28;20191;-40
2022/03/26 06:04:24;;;;;;;52.47;26.67;;;3.10;99.90;;;;;;5096420;28;20228;-40
2022/03/26 06:06:50;;;;;;;47.33;25.13;;;3.10;99.90;;;;;;5096248;28;20263;-40
2022/03/26 06:09:16;;;;;;;58.90;29.00;;;3.10;99.90;;;;;;5096285;28;20289;-41
2022/03/26 06:11:42;;;;;;;54.63;26.70;;;3.10;99.90;;;;;;5096411;28;20191;-40
2022/03/26 06:14:07;;;;;;;51.10;26.57;;;3.10;99.90;;;;;;5096119;28;20179;-41
2022/03/26 06:16:34;;;;;;;60.27;29.23;;;3.10;99.90;;;;;;5096104;28;20195;-41
2022/03/26 06:19:00;;;;;;;56.40;27.83;;;3.20;99.90;;;;;;5096243;28;20182;-40
2022/03/26 06:21:28;;;;;;;53.20;27.20;;;3.20;99.90;;;;;;5096173;28;20179;-42
2022/03/26 06:23:57;;;;;;;59.37;28.37;;;3.30;99.90;;;;;;5096194;28;20191;-41
2022/03/26 06:26:22;;;;;;;66.13;29.30;;;3.30;99.90;;;;;;5096239;28;20343;-39
2022/03/26 06:28:48;;;;;;;60.27;28.80;;;3.30;99.90;;;;;;5095620;28;20687;-40
2022/03/26 06:31:14;;;;;;;58.57;28.67;;;3.40;99.90;;;;;;5095799;28;20183;-39
2022/03/26 06:33:39;;;;;;;62.17;29.80;;;3.50;99.90;;;;;;5095670;28;20608;-40
2022/03/26 06:36:05;;;;;;;57.93;30.23;;;3.60;99.90;;;;;;5095553;28;20655;-40
2022/03/26 06:38:32;;;;;;;57.70;29.43;;;3.80;99.90;;;;;;5095564;28;20207;-39
2022/03/26 06:40:58;;;;;;;58.07;30.43;;;3.90;99.90;;;;;;5096071;28;20218;-41
2022/03/26 06:43:24;;;;;;;62.57;31.27;;;4.10;99.90;;;;;;5095841;28;20179;-40
2022/03/26 06:45:50;;;;;;;56.53;30.37;;;4.20;99.90;;;;;;5095790;28;20209;-40
2022/03/26 06:48:15;;;;;;;55.00;28.90;;;4.30;99.90;;;;;;5095438;28;20209;-40
2022/03/26 06:50:42;;;;;;;51.17;29.70;;;4.50;99.90;;;;;;5095548;28;20183;-42
2022/03/26 06:53:08;;;;;;;72.37;32.23;;;4.70;99.90;;;;;;5095626;28;20559;-40
2022/03/26 06:55:33;;;;;;;61.40;32.77;;;4.90;99.90;;;;;;5095671;28;20198;-41
2022/03/26 06:57:59;;;;;;;62.27;33.50;;;4.90;99.90;;;;;;5095581;28;20243;-38
2022/03/26 07:00:25;;;;;;;75.27;35.30;;;5.10;99.90;;;;;;5096003;28;20183;-42
2022/03/26 07:02:50;;;;;;;73.17;35.13;;;5.30;99.90;;;;;;5095773;28;20183;-40
2022/03/26 07:05:16;;;;;;;79.60;36.27;;;5.50;99.90;;;;;;5096469;28;20337;-41
2022/03/26 07:07:42;;;;;;;72.90;34.57;;;5.70;99.90;;;;;;5094791;28;20293;-42
2022/03/26 07:10:08;;;;;;;73.83;34.37;;;5.80;99.90;;;;;;5094981;28;20201;-41
2022/03/26 07:12:34;;;;;;;72.00;36.93;;;5.90;99.90;;;;;;5094873;28;20198;-39
2022/03/26 07:15:00;;;;;;;70.53;35.23;;;6.10;99.90;;;;;;5095112;28;20182;-38
2022/03/26 07:17:26;;;;;;;65.67;35.17;;;6.40;99.90;;;;;;5095301;28;20236;-38
2022/03/26 07:19:51;;;;;;;68.83;35.23;;;6.60;99.90;;;;;;5093693;28;20615;-40
2022/03/26 07:22:18;;;;;;;70.93;34.93;;;6.70;99.90;;;;;;5095186;28;20228;-43
2022/03/26 07:24:43;;;;;;;72.23;35.63;;;6.70;99.90;;;;;;5095137;28;20207;-39
2022/03/26 07:27:09;;;;;;;72.43;35.77;;;6.80;99.90;;;;;;5094572;28;20199;-40
2022/03/26 07:29:38;;;;;;;59.80;34.33;;;7.00;99.90;;;;;;5094921;28;20248;-40
2022/03/26 07:32:09;;;;;;;71.40;34.60;;;7.00;99.90;;;;;;5094946;28;20600;-41
2022/03/26 07:34:35;;;;;;;61.53;35.00;;;7.00;99.90;;;;;;5093490;28;20216;-39
2022/03/26 07:37:00;;;;;;;67.60;35.03;;;7.10;99.90;;;;;;5094501;28;20194;-40
2022/03/26 07:39:26;;;;;;;61.83;34.63;;;7.20;99.90;;;;;;5094466;28;20201;-40
2022/03/26 07:41:52;;;;;;;72.57;34.70;;;7.30;99.90;;;;;;5094490;28;20207;-39
2022/03/26 07:44:17;;;;;;;74.83;35.20;;;7.40;99.90;;;;;;5094736;28;20187;-39
2022/03/26 07:46:43;;;;;;;65.43;35.13;;;7.60;99.90;;;;;;5094226;28;20191;-39
2022/03/26 07:49:09;;;;;;;72.03;36.73;;;7.80;99.90;;;;;;5094326;28;20626;-39
2022/03/26 07:51:35;;;;;;;72.03;35.40;;;7.90;99.90;;;;;;5094301;28;20313;-38
2022/03/26 07:54:00;;;;;;;67.23;33.40;;;8.10;99.90;;;;;;5094084;28;20178;-39
2022/03/26 07:56:26;;;;;;;70.63;35.53;;;8.20;99.90;;;;;;5094175;28;20201;-38
2022/03/26 07:58:52;;;;;;;70.70;35.27;;;8.40;99.90;;;;;;5094485;28;20565;-40
2022/03/26 08:01:18;;;;;;;68.13;33.27;;;8.60;99.90;;;;;;5093995;28;20203;-40
2022/03/26 08:03:43;;;;;;;68.37;33.53;;;8.60;99.90;;;;;;5094362;28;20266;-40
2022/03/26 08:06:09;;;;;;;74.33;34.97;;;8.80;99.90;;;;;;5093776;28;20233;-42
2022/03/26 08:08:35;;;;;;;55.63;31.63;;;9.00;99.90;;;;;;5093885;28;20259;-40
2022/03/26 08:11:02;;;;;;;65.57;33.70;;;9.10;99.90;;;;;;5094212;28;20552;-41
2022/03/26 08:13:28;;;;;;;63.67;33.30;;;9.20;99.90;;;;;;5093897;28;20190;-41
2022/03/26 08:15:53;;;;;;;63.50;33.47;;;9.30;99.90;;;;;;5093802;28;20187;-40
2022/03/26 08:18:19;;;;;;;61.47;32.83;;;9.40;99.90;;;;;;5094476;28;20254;-41
2022/03/26 08:20:45;;;;;;;59.77;31.53;;;9.60;99.90;;;;;;5093652;28;20224;-40
2022/03/26 08:23:10;;;;;;;58.60;31.77;;;9.70;99.90;;;;;;5093326;28;20183;-42
2022/03/26 08:28:20;;;;;;;64.63;30.47;;;10.00;99.90;;;;;;5093931;28;20205;-39
2022/03/26 08:30:46;;;;;;;54.93;30.13;;;10.20;99.90;;;;;;5093585;28;20547;-39
2022/03/26 08:33:12;;;;;;;59.73;29.83;;;10.30;99.90;;;;;;5093612;28;20167;-41
2022/03/26 08:35:39;;;;;;;58.77;28.23;;;10.50;99.90;;;;;;5093941;28;20194;-41
2022/03/26 08:38:05;;;;;;;51.20;27.73;;;10.70;99.90;;;;;;5093595;28;20259;-40
2022/03/26 08:40:31;;;;;;;54.93;28.07;;;10.90;99.90;;;;;;5093558;28;20220;-40
2022/03/26 08:43:00;;;;;;;52.40;29.03;;;11.20;99.90;;;;;;5093758;28;20204;-42
2022/03/26 08:45:27;;;;;;;52.60;28.07;;;11.50;99.90;;;;;;5093695;28;20205;-40
2022/03/26 08:47:53;;;;;;;50.67;29.40;;;11.70;99.90;;;;;;5094010;28;20194;-39
2022/03/26 08:50:19;;;;;;;56.43;28.43;;;12.00;99.90;;;;;;5093518;28;20235;-42
2022/03/26 08:52:47;;;;;;;52.73;29.40;;;12.20;99.90;;;;;;5093399;28;20167;-41
2022/03/26 08:55:14;;;;;;;48.83;26.03;;;12.40;99.90;;;;;;5093549;28;20202;-40
2022/03/26 08:57:39;;;;;;;43.73;24.67;;;12.50;99.90;;;;;;5093534;28;20167;-41
2022/03/26 09:00:06;;;;;;;42.23;26.33;;;12.70;99.90;;;;;;5093652;28;20181;-40
2022/03/26 09:02:32;;;;;;;47.27;26.67;;;12.70;99.90;;;;;;5093407;28;20179;-41
2022/03/26 09:04:58;;;;;;;41.97;25.97;;;12.80;99.90;;;;;;5093649;28;20193;-38
2022/03/26 09:07:23;;;;;;;44.77;25.70;;;12.90;99.90;;;;;;5093148;28;20713;-41
2022/03/26 09:09:49;;;;;;;43.07;26.03;;;13.20;99.90;;;;;;5093526;28;20179;-41
2022/03/26 09:12:15;;;;;;;48.60;26.00;;;13.30;99.90;;;;;;5093151;28;20198;-40
2022/03/26 09:14:41;;;;;;;44.40;26.00;;;13.50;99.90;;;;;;5091785;28;20185;-42
2022/03/26 09:17:06;;;;;;;46.33;26.77;;;13.60;99.90;;;;;;5093152;28;20278;-42
2022/03/26 09:19:32;;;;;;;48.20;26.87;;;13.60;99.90;;;;;;5093128;28;20596;-39
2022/03/26 09:21:58;;;;;;;47.57;27.67;;;13.50;99.90;;;;;;5093583;28;20187;-42
2022/03/26 09:24:24;;;;;;;44.30;25.13;;;13.50;99.90;;;;;;5093286;28;20183;-41
2022/03/26 09:26:49;;;;;;;47.03;26.40;;;13.50;99.90;;;;;;5093406;28;20203;-40
2022/03/26 09:29:16;;;;;;;45.67;25.33;;;13.70;99.90;;;;;;5093572;28;20226;-40
2022/03/26 09:31:42;;;;;;;46.77;26.37;;;13.90;99.90;;;;;;5093308;28;20167;-42
2022/03/26 09:34:08;;;;;;;49.83;26.80;;;14.10;99.90;;;;;;5095085;28;20567;-42
2022/03/26 09:36:33;;;;;;;54.60;27.13;;;14.20;99.90;;;;;;5096763;28;20241;-41
2022/03/26 09:38:59;;;;;;;43.80;26.27;;;14.20;99.90;;;;;;5096737;28;20178;-41
2022/03/26 09:41:27;;;;;;;42.07;25.47;;;14.30;99.90;;;;;;5097141;28;20175;-42
2022/03/26 09:43:54;;;;;;;43.77;25.63;;;14.30;99.90;;;;;;5097134;28;20179;-41
2022/03/26 09:46:20;;;;;;;44.80;26.00;;;14.30;99.90;;;;;;5096608;28;20667;-40
2022/03/26 09:48:46;;;;;;;50.70;25.87;;;14.50;99.90;;;;;;5096887;28;20191;-43
2022/03/26 09:51:14;;;;;;;43.43;26.77;;;14.60;99.90;;;;;;5097068;28;20682;-41
2022/03/26 09:53:40;;;;;;;47.47;26.03;;;14.60;99.90;;;;;;5096495;28;20203;-42
2022/03/26 09:56:07;;;;;;;44.00;25.80;;;14.60;99.90;;;;;;5096544;28;20225;-42
2022/03/26 09:58:32;;;;;;;50.20;26.13;;;14.70;99.90;;;;;;5096650;28;20175;-42
2022/03/26 10:00:58;;;;;;;46.37;26.60;;;14.90;99.90;;;;;;5095170;28;20674;-40
2022/03/26 10:03:25;;;;;;;49.60;27.00;;;15.00;99.90;;;;;;5096286;28;20661;-45
2022/03/26 10:06:04;;;;;;;47.93;27.13;;;15.00;99.90;;;;;;5096301;28;20222;-46
2022/03/26 10:08:36;;;;;;;50.33;25.60;;;15.00;99.90;;;;;;5096476;28;20278;-48
2022/03/26 10:11:02;;;;;;;42.53;24.00;;;15.10;99.90;;;;;;5096471;28;20251;-46
2022/03/26 10:13:47;;;;;;;42.20;24.47;;;15.00;99.90;;;;;;5095952;28;20225;-44
2022/03/26 10:16:15;;;;;;;45.80;24.23;;;15.10;99.90;;;;;;5096406;28;20274;-47
2022/03/26 10:18:43;;;;;;;45.77;24.47;;;15.00;99.90;;;;;;5095940;28;20253;-46
2022/03/26 10:21:12;;;;;;;43.57;23.37;;;15.10;99.90;;;;;;5096266;28;20175;-46
2022/03/26 10:23:49;;;;;;;40.23;22.83;;;15.20;99.90;;;;;;5096264;28;20179;-47
2022/03/26 10:26:17;;;;;;;48.10;24.27;;;15.20;99.90;;;;;;5096287;28;20222;-47
2022/03/26 10:28:48;;;;;;;41.10;24.63;;;15.30;99.90;;;;;;5096365;28;20564;-44
2022/03/26 10:34:12;;;;;;;46.83;25.70;;;15.50;99.90;;;;;;5096056;28;20162;-44
2022/03/26 10:36:46;;;;;;;52.97;26.43;;;15.60;99.90;;;;;;5094592;28;20198;-46
2022/03/26 10:39:17;;;;;;;47.43;25.97;;;15.70;99.90;;;;;;5096155;28;20612;-46
2022/03/26 10:41:43;;;;;;;39.17;25.00;;;15.90;99.90;;;;;;5095814;28;20175;-45
2022/03/26 10:44:25;;;;;;;45.27;25.37;;;16.00;99.90;;;;;;5096011;28;20239;-45
2022/03/26 10:46:59;;;;;;;46.33;25.77;;;16.10;99.90;;;;;;5093558;28;20676;-45
2022/03/26 10:49:29;;;;;;;46.40;24.70;;;16.10;99.90;;;;;;5095625;28;20275;-47
2022/03/26 10:51:56;;;;;;;46.00;25.43;;;16.20;99.90;;;;;;5095677;28;20531;-47
2022/03/26 10:54:30;;;;;;;41.47;23.23;;;16.20;99.90;;;;;;5095239;28;20175;-45
2022/03/26 10:56:58;;;;;;;44.67;24.07;;;16.40;99.90;;;;;;5095155;28;20199;-46
2022/03/26 10:59:25;;;;;;;51.37;23.23;;;16.40;99.90;;;;;;5095108;28;20171;-44
2022/03/26 11:01:51;;;;;;;38.90;23.47;;;16.50;99.90;;;;;;5093900;28;20203;-46
2022/03/26 11:04:18;;;;;;;43.23;24.30;;;16.60;99.90;;;;;;5095246;28;20183;-47
2022/03/26 11:06:44;;;;;;;42.90;23.53;;;16.60;99.90;;;;;;5094903;28;20191;-45
2022/03/26 11:09:11;;;;;;;36.93;22.83;;;16.70;99.90;;;;;;5095180;28;20210;-46
2022/03/26 11:11:37;;;;;;;39.20;23.63;;;16.70;99.90;;;;;;5094931;28;20194;-44
2022/03/26 11:14:10;;;;;;;40.13;22.30;;;16.70;99.90;;;;;;5094826;28;20663;-47
2022/03/26 11:17:02;;;;;;;40.50;22.57;;;16.70;99.90;;;;;;5094756;28;20191;-46
2022/03/26 11:19:52;;;;;;;40.10;22.60;;;16.90;99.90;;;;;;5095167;28;20175;-46
2022/03/26 11:23:05;;;;;;;37.60;22.37;;;17.10;99.90;;;;;;5095083;28;20247;-46
2022/03/26 11:26:01;;;;;;;35.07;23.17;;;17.10;99.90;;;;;;5094583;28;20199;-46
2022/03/26 11:28:45;;;;;;;33.50;21.80;;;17.10;99.90;;;;;;5094770;28;20183;-45
2022/03/26 11:31:44;;;;;;;39.13;23.00;;;17.00;99.90;;;;;;5094805;28;20629;-45
2022/03/26 11:34:10;;;;;;;42.33;23.07;;;17.00;99.90;;;;;;5095082;28;20170;-46
2022/03/26 11:36:36;;;;;;;34.47;23.03;;;17.10;99.90;;;;;;5094752;28;20680;-46
2022/03/26 11:39:11;;;;;;;32.67;22.00;;;17.10;99.90;;;;;;5094815;28;20193;-42
2022/03/26 11:41:36;;;;;;;42.43;24.50;;;17.20;99.90;;;;;;5094353;28;20261;-39
2022/03/26 11:44:03;;;;;;;38.33;22.23;;;17.30;99.90;;;;;;5094357;28;20205;-41
2022/03/26 11:52:33;;;;;;;38.30;24.27;;;17.60;99.90;;;;;;5094298;28;20163;-42
2022/03/26 11:55:10;;;;;;;40.63;23.40;;;17.60;99.90;;;;;;5094023;28;20171;-41
2022/03/26 11:57:36;;;;;;;38.63;24.73;;;17.60;99.90;;;;;;5093958;28;20242;-40
2022/03/26 12:00:07;;;;;;;37.00;23.60;;;17.60;99.90;;;;;;5094214;28;20198;-42
2022/03/26 12:02:35;;;;;;;41.80;25.13;;;17.70;99.90;;;;;;5094300;28;20158;-41
2022/03/26 12:07:50;;;;;;;33.63;23.20;;;17.90;99.90;;;;;;5094283;28;20690;-41
2022/03/26 12:10:18;;;;;;;31.90;20.97;;;18.00;99.90;;;;;;5093939;28;20171;-42
2022/03/26 12:12:57;;;;;;;32.77;21.93;;;18.00;99.90;;;;;;5093684;28;20190;-42
2022/03/26 12:15:25;;;;;;;34.53;23.43;;;18.20;99.90;;;;;;5094052;28;20194;-42
2022/03/26 12:18:07;;;;;;;35.10;22.03;;;18.20;99.90;;;;;;5093959;28;20190;-42
2022/03/26 12:20:35;;;;;;;32.27;21.47;;;18.20;99.90;;;;;;5093950;28;20171;-42
2022/03/26 12:23:15;;;;;;;33.87;20.50;;;18.10;99.90;;;;;;5093933;28;20181;-42
2022/03/26 12:25:45;;;;;;;33.93;20.53;;;18.10;99.90;;;;;;5094193;28;20195;-43
2022/03/26 12:28:12;;;;;;;35.13;19.67;;;18.10;99.90;;;;;;5093846;28;20190;-43
2022/03/26 12:30:43;;;;;;;30.87;19.93;;;18.20;99.90;;;;;;5093740;28;20255;-41
2022/03/26 12:33:08;;;;;;;31.80;18.27;;;18.20;99.90;;;;;;5093815;28;20166;-41
2022/03/26 12:35:34;;;;;;;31.97;19.13;;;18.20;99.90;;;;;;5093704;28;20205;-42
2022/03/26 12:38:03;;;;;;;26.30;16.53;;;18.40;99.90;;;;;;5093523;28;20181;-44
2022/03/26 12:40:29;;;;;;;30.07;17.27;;;18.50;99.30;;;;;;5093383;28;20554;-40
2022/03/26 12:42:55;;;;;;;20.90;14.70;;;18.50;98.60;;;;;;5093653;28;20174;-43
2022/03/26 12:45:20;;;;;;;34.23;17.47;;;18.40;98.40;;;;;;5093416;28;20198;-42
2022/03/26 12:47:47;;;;;;;28.20;13.60;;;18.40;96.70;;;;;;5093496;28;20717;-43